createdAt,value
2022-12-01T00:00:22.435Z,11.65
2022-12-01T00:02:48.850Z,11.73
2022-12-01T00:05:15.271Z,11.63
2022-12-01T00:07:41.654Z,10.30
2022-12-01T00:10:25.794Z,11.23
2022-12-01T00:12:57.626Z,11.73
2022-12-01T00:15:27.081Z,11.48
2022-12-01T00:17:53.431Z,10.82
2022-12-01T00:20:19.775Z,9.90
2022-12-01T00:22:47.373Z,9.88
2022-12-01T00:25:15.455Z,10.95
2022-12-01T00:27:42.515Z,10.25
2022-12-01T00:30:11.543Z,11.10
2022-12-01T00:32:37.966Z,10.63
2022-12-01T00:35:05.948Z,10.45
2022-12-01T00:37:33.955Z,10.48
2022-12-01T00:40:00.983Z,10.82
2022-12-01T00:42:27.332Z,10.90
2022-12-01T00:44:54.021Z,9.65
2022-12-01T00:47:20.424Z,12.18
2022-12-01T00:49:47.092Z,11.23
2022-12-01T00:52:14.940Z,10.15
2022-12-01T00:54:41.232Z,11.00
2022-12-01T00:57:08.014Z,11.65
2022-12-01T00:59:35.727Z,10.23
2022-12-01T01:02:06.360Z,10.23
2022-12-01T01:04:35.688Z,11.50
2022-12-01T01:07:02.101Z,11.23
2022-12-01T01:09:28.470Z,10.13
2022-12-01T01:11:55.123Z,11.35
2022-12-01T01:14:24.084Z,10.30
2022-12-01T01:16:50.488Z,11.30
2022-12-01T01:19:17.429Z,11.10
2022-12-01T01:21:43.765Z,11.15
2022-12-01T01:24:10.255Z,11.15
2022-12-01T01:26:37.762Z,12.45
2022-12-01T01:29:07.681Z,11.00
2022-12-01T01:31:34.810Z,11.07
2022-12-01T01:34:01.351Z,10.82
2022-12-01T01:36:27.772Z,12.43
2022-12-01T01:38:55.131Z,11.88
2022-12-01T01:41:22.780Z,11.88
2022-12-01T01:43:52.310Z,12.77
2022-12-01T01:46:19.933Z,12.18
2022-12-01T01:48:52.118Z,12.30
2022-12-01T01:51:24.304Z,11.82
2022-12-01T01:53:54.746Z,12.05
2022-12-01T01:56:22.310Z,13.05
2022-12-01T01:58:49.767Z,12.73
2022-12-01T02:01:16.239Z,11.77
2022-12-01T02:03:43.351Z,11.98
2022-12-01T02:06:11.022Z,13.40
2022-12-01T02:08:38.164Z,11.70
2022-12-01T02:11:14.664Z,12.38
2022-12-01T02:14:08.124Z,13.63
2022-12-01T02:16:55.734Z,12.18
2022-12-01T02:19:52.175Z,12.73
2022-12-01T02:22:40.539Z,11.25
2022-12-01T02:25:18.514Z,13.43
2022-12-01T02:27:47.878Z,12.25
2022-12-01T02:30:18.003Z,12.98
2022-12-01T02:33:04.107Z,12.55
2022-12-01T02:35:43.546Z,13.20
2022-12-01T02:38:13.429Z,11.90
2022-12-01T02:40:45.514Z,12.50
2022-12-01T02:43:27.308Z,13.35
2022-12-01T02:46:15.475Z,12.48
2022-12-01T02:48:46.963Z,13.93
2022-12-01T02:51:19.750Z,13.75
2022-12-01T02:53:46.597Z,12.63
2022-12-01T02:56:16.054Z,13.93
2022-12-01T02:58:43.678Z,12.07
2022-12-01T03:01:50.475Z,13.27
2022-12-01T03:04:22.788Z,13.50
2022-12-01T03:07:15.620Z,12.25
2022-12-01T03:09:57.158Z,12.00
2022-12-01T03:12:35.450Z,13.35
2022-12-01T03:15:10.572Z,12.25
2022-12-01T03:17:49.682Z,12.65
2022-12-01T03:20:41.563Z,11.55
2022-12-01T03:23:12.870Z,13.50
2022-12-01T03:25:44.276Z,13.68
2022-12-01T03:28:21.098Z,13.68
2022-12-01T03:30:52.514Z,11.95
2022-12-01T03:33:43.282Z,13.55
2022-12-01T03:36:19.452Z,12.50
2022-12-01T03:38:52.558Z,13.27
2022-12-01T03:41:27.912Z,12.05
2022-12-01T03:44:03.481Z,14.55
2022-12-01T03:49:03.663Z,13.07
2022-12-01T03:51:50.577Z,12.35
2022-12-01T03:54:28.794Z,12.20
2022-12-01T03:57:02.985Z,12.32
2022-12-01T03:59:31.002Z,13.15
2022-12-01T04:01:58.169Z,12.88
2022-12-01T04:04:24.606Z,12.88
2022-12-01T04:06:51.217Z,12.70
2022-12-01T04:09:17.935Z,12.70
2022-12-01T04:12:02.906Z,12.95
2022-12-01T04:14:30.149Z,13.48
2022-12-01T04:16:56.496Z,13.05
2022-12-01T04:19:22.959Z,14.32
2022-12-01T04:21:49.363Z,12.43
2022-12-01T04:24:15.821Z,13.23
2022-12-01T04:26:43.262Z,13.13
2022-12-01T04:29:11.440Z,12.80
2022-12-01T04:31:38.030Z,13.50
2022-12-01T04:34:04.902Z,13.68
2022-12-01T04:36:33.452Z,14.23
2022-12-01T04:39:00.543Z,14.32
2022-12-01T04:41:27.119Z,12.70
2022-12-01T04:43:54.492Z,12.52
2022-12-01T04:46:22.014Z,13.63
2022-12-01T04:48:48.445Z,13.60
2022-12-01T04:51:14.821Z,14.18
2022-12-01T04:53:41.262Z,14.35
2022-12-01T04:56:07.622Z,13.50
2022-12-01T04:58:37.349Z,13.63
2022-12-01T05:01:10.224Z,11.85
2022-12-01T05:03:41.920Z,13.05
2022-12-01T05:06:14.829Z,13.68
2022-12-01T05:08:41.920Z,13.32
2022-12-01T05:11:11.217Z,13.20
2022-12-01T05:13:43.566Z,13.45
2022-12-01T05:16:15.981Z,13.32
2022-12-01T05:18:42.741Z,11.77
2022-12-01T05:21:11.055Z,13.35
2022-12-01T05:23:38.628Z,14.27
2022-12-01T05:26:07.933Z,14.02
2022-12-01T05:28:35.535Z,13.38
2022-12-01T05:31:02.386Z,12.88
2022-12-01T05:33:29.277Z,13.38
2022-12-01T05:35:55.945Z,13.20
2022-12-01T05:38:22.292Z,12.68
2022-12-01T05:40:53.085Z,13.60
2022-12-01T05:43:25.404Z,13.18
2022-12-01T05:45:55.464Z,13.55
2022-12-01T05:48:21.930Z,12.60
2022-12-01T05:50:48.271Z,14.07
2022-12-01T05:53:14.899Z,13.48
2022-12-01T05:55:41.512Z,14.43
2022-12-01T05:58:08.275Z,12.30
2022-12-01T06:00:35.216Z,14.07
2022-12-01T06:03:02.237Z,13.00
2022-12-01T06:05:28.705Z,13.82
2022-12-01T06:07:55.049Z,13.73
2022-12-01T06:10:21.798Z,13.32
2022-12-01T06:12:48.238Z,12.85
2022-12-01T06:15:14.574Z,14.00
2022-12-01T06:17:40.905Z,12.68
2022-12-01T06:20:09.082Z,12.60
2022-12-01T06:22:35.459Z,11.77
2022-12-01T06:25:01.806Z,13.73
2022-12-01T06:27:28.175Z,12.63
2022-12-01T06:29:54.691Z,11.93
2022-12-01T06:32:21.107Z,11.45
2022-12-01T06:34:47.394Z,12.07
2022-12-01T06:37:15.615Z,12.65
2022-12-01T06:39:42.315Z,11.73
2022-12-01T06:42:08.670Z,10.98
2022-12-01T06:44:35.070Z,12.13
2022-12-01T06:47:01.459Z,13.07
2022-12-01T06:49:27.818Z,11.73
2022-12-01T06:51:54.193Z,12.30
2022-12-01T06:54:21.282Z,10.57
2022-12-01T06:56:47.823Z,11.73
2022-12-01T06:59:14.551Z,10.45
2022-12-01T07:01:41.315Z,10.07
2022-12-01T07:04:07.679Z,10.90
2022-12-01T07:06:34.043Z,10.63
2022-12-01T07:09:00.589Z,10.07
2022-12-01T07:11:26.996Z,12.00
2022-12-01T07:13:56.792Z,10.32
2022-12-01T07:16:23.341Z,11.30
2022-12-01T07:18:50.094Z,10.98
2022-12-01T07:21:17.093Z,11.68
2022-12-01T07:23:43.516Z,12.32
2022-12-01T07:26:15.728Z,10.07
2022-12-01T07:28:42.574Z,10.85
2022-12-01T07:31:10.390Z,11.27
2022-12-01T07:33:37.225Z,11.10
2022-12-01T07:36:04.651Z,10.80
2022-12-01T07:38:32.146Z,11.10
2022-12-01T07:41:10.208Z,10.52
2022-12-01T07:43:36.932Z,9.73
2022-12-01T07:46:21.731Z,11.45
2022-12-01T07:48:48.956Z,10.75
2022-12-01T07:51:16.687Z,11.00
2022-12-01T07:53:44.968Z,9.90
2022-12-01T07:56:11.430Z,10.63
2022-12-01T07:58:37.882Z,11.05
2022-12-01T08:01:07.910Z,10.73
2022-12-01T08:03:34.505Z,9.48
2022-12-01T08:06:05.070Z,10.18
2022-12-01T08:08:33.429Z,10.35
2022-12-01T08:11:02.068Z,10.18
2022-12-01T08:13:28.781Z,11.25
2022-12-01T08:15:55.901Z,9.98
2022-12-01T08:18:22.963Z,10.05
2022-12-01T08:20:50.540Z,9.90
2022-12-01T08:23:16.952Z,9.73
2022-12-01T08:25:43.446Z,9.27
2022-12-01T08:28:09.794Z,9.30
2022-12-01T08:30:36.423Z,10.68
2022-12-01T08:33:03.012Z,10.23
2022-12-01T08:35:29.422Z,9.35
2022-12-01T08:37:55.800Z,9.65
2022-12-01T08:40:22.376Z,9.95
2022-12-01T08:42:48.795Z,10.52
2022-12-01T08:45:15.166Z,9.63
2022-12-01T08:47:41.514Z,9.30
2022-12-01T08:50:08.203Z,9.75
2022-12-01T08:52:34.931Z,9.13
2022-12-01T08:55:01.587Z,8.65
2022-12-01T08:57:31.154Z,9.45
2022-12-01T08:59:57.799Z,8.80
2022-12-01T09:02:24.814Z,9.88
2022-12-01T09:04:51.480Z,9.02
2022-12-01T09:07:24.593Z,8.60
2022-12-01T09:09:52.915Z,9.98
2022-12-01T09:12:19.676Z,9.02
2022-12-01T09:14:48.069Z,8.88
2022-12-01T09:17:15.124Z,8.40
2022-12-01T09:19:42.198Z,9.00
2022-12-01T09:22:09.583Z,8.63
2022-12-01T09:24:36.292Z,10.52
2022-12-01T09:27:03.440Z,9.35
2022-12-01T09:29:30.289Z,8.70
2022-12-01T09:31:58.118Z,8.80
2022-12-01T09:34:24.959Z,9.38
2022-12-01T09:36:56.083Z,9.30
2022-12-01T09:39:22.522Z,8.93
2022-12-01T09:41:56.714Z,9.27
2022-12-01T09:44:51.288Z,9.32
2022-12-01T09:47:36.775Z,8.45
2022-12-01T09:50:11.305Z,8.10
2022-12-01T09:52:45.226Z,8.57
2022-12-01T09:55:13.370Z,9.00
2022-12-01T09:57:40.890Z,8.98
2022-12-01T10:00:14.613Z,8.63
2022-12-01T10:02:47.867Z,9.52
2022-12-01T10:05:21.687Z,8.60
2022-12-01T10:08:03.914Z,8.75
2022-12-01T10:10:34.289Z,9.65
2022-12-01T10:13:00.791Z,7.75
2022-12-01T10:15:32.990Z,7.50
2022-12-01T10:18:20.397Z,7.90
2022-12-01T10:21:07.339Z,7.57
2022-12-01T10:23:45.669Z,8.05
2022-12-01T10:26:26.083Z,7.65
2022-12-01T10:29:16.764Z,7.63
2022-12-01T10:31:52.900Z,8.23
2022-12-01T10:34:27.511Z,8.02
2022-12-01T10:36:54.015Z,7.00
2022-12-01T10:39:28.907Z,8.40
2022-12-01T10:42:06.781Z,7.80
2022-12-01T10:44:34.917Z,7.55
2022-12-01T10:47:03.069Z,7.53
2022-12-01T10:49:41.016Z,8.32
2022-12-01T10:52:23.850Z,7.63
2022-12-01T10:54:50.156Z,7.45
2022-12-01T10:57:19.107Z,8.32
2022-12-01T10:59:53.052Z,7.72
2022-12-01T11:02:22.843Z,7.88
2022-12-01T11:05:01.730Z,8.20
2022-12-01T11:07:45.536Z,7.85
2022-12-01T11:10:20.161Z,7.85
2022-12-01T11:12:55.055Z,7.78
2022-12-01T11:15:32.221Z,7.45
2022-12-01T11:18:01.747Z,7.60
2022-12-01T11:20:37.606Z,7.95
2022-12-01T11:23:10.108Z,7.65
2022-12-01T11:25:36.898Z,7.05
2022-12-01T11:28:04.459Z,7.78
2022-12-01T11:30:32.624Z,8.10
2022-12-01T11:33:04.175Z,7.63
2022-12-01T11:35:36.481Z,8.02
2022-12-01T11:38:28.817Z,8.30
2022-12-01T11:40:55.102Z,8.85
2022-12-01T11:43:29.188Z,8.68
2022-12-01T11:45:58.055Z,8.13
2022-12-01T11:48:34.355Z,9.25
2022-12-01T11:51:18.974Z,9.75
2022-12-01T11:53:45.990Z,8.70
2022-12-01T11:56:30.019Z,9.18
2022-12-01T11:59:01.142Z,8.30
2022-12-01T12:01:42.424Z,10.23
2022-12-01T12:04:33.633Z,9.80
2022-12-01T12:07:17.500Z,9.55
2022-12-01T12:10:02.227Z,10.65
2022-12-01T12:12:53.541Z,9.35
2022-12-01T12:15:23.001Z,9.40
2022-12-01T12:17:59.446Z,10.88
2022-12-01T12:20:31.732Z,9.93
2022-12-01T12:23:29.488Z,9.63
2022-12-01T12:26:28.019Z,10.60
2022-12-01T12:29:15.847Z,10.98
2022-12-01T12:31:55.795Z,9.63
2022-12-01T12:34:59.407Z,10.07
2022-12-01T12:37:53.791Z,10.48
2022-12-01T12:40:38.595Z,10.23
2022-12-01T12:43:23.755Z,10.20
2022-12-01T12:46:01.121Z,9.73
2022-12-01T12:49:12.149Z,11.07
2022-12-01T12:51:35.465Z,10.23
2022-12-01T12:54:20.656Z,9.88
2022-12-01T12:56:52.736Z,12.55
2022-12-01T12:59:28.443Z,11.30
2022-12-01T13:02:15.680Z,11.02
2022-12-01T13:05:17.561Z,10.02
2022-12-01T13:08:04.065Z,11.38
2022-12-01T13:10:42.459Z,10.68
2022-12-01T13:13:20.893Z,11.05
2022-12-01T13:15:50.492Z,11.50
2022-12-01T13:18:25.173Z,16.33
2022-12-01T13:20:53.461Z,12.53
2022-12-01T13:23:21.955Z,12.65
2022-12-01T13:25:53.283Z,11.90
2022-12-01T13:28:27.405Z,10.90
2022-12-01T13:30:59.764Z,10.55
2022-12-01T13:33:26.565Z,12.35
2022-12-01T13:36:15.404Z,10.98
2022-12-01T13:38:41.515Z,10.07
2022-12-01T13:41:21.623Z,11.77
2022-12-01T13:43:56.802Z,11.18
2022-12-01T13:46:35.189Z,13.25
2022-12-01T13:49:03.823Z,11.43
2022-12-01T13:52:08.767Z,12.43
2022-12-01T13:54:36.372Z,14.13
2022-12-01T13:57:10.659Z,11.48
2022-12-01T13:59:58.705Z,11.85
2022-12-01T14:02:28.000Z,11.02
2022-12-01T14:04:54.545Z,11.70
2022-12-01T14:07:35.071Z,10.90
2022-12-01T14:10:25.592Z,11.05
2022-12-01T14:12:55.615Z,10.90
2022-12-01T14:15:37.138Z,10.65
2022-12-01T14:18:08.425Z,10.18
2022-12-01T14:20:43.511Z,9.82
2022-12-01T14:23:24.871Z,10.73
2022-12-01T14:26:19.278Z,10.82
2022-12-01T14:28:54.959Z,10.30
2022-12-01T14:31:23.597Z,11.93
2022-12-01T14:34:04.058Z,11.90
2022-12-01T14:36:40.447Z,11.68
2022-12-01T14:39:17.668Z,12.18
2022-12-01T14:42:11.758Z,12.25
2022-12-01T14:44:47.860Z,11.32
2022-12-01T14:47:42.037Z,10.00
2022-12-01T14:50:25.033Z,9.73
2022-12-01T14:53:01.318Z,9.70
2022-12-01T14:55:34.210Z,9.40
2022-12-01T14:58:14.223Z,10.25
2022-12-01T15:00:55.217Z,10.25
2022-12-01T15:03:27.608Z,8.90
2022-12-01T15:05:56.971Z,9.75
2022-12-01T15:08:58.275Z,9.50
2022-12-01T15:11:25.407Z,10.15
2022-12-01T15:13:54.685Z,8.77
2022-12-01T15:16:23.855Z,8.90
2022-12-01T15:18:50.371Z,9.23
2022-12-01T15:21:24.987Z,9.38
2022-12-01T15:24:03.297Z,8.07
2022-12-01T15:26:47.685Z,8.48
2022-12-01T15:29:22.903Z,9.65
2022-12-01T15:31:53.355Z,9.18
2022-12-01T15:34:33.334Z,8.90
2022-12-01T15:37:02.926Z,8.98
2022-12-01T15:39:35.450Z,9.07
2022-12-01T15:42:02.995Z,9.90
2022-12-01T15:44:35.268Z,9.70
2022-12-01T15:47:49.736Z,9.45
2022-12-01T15:50:29.642Z,9.10
2022-12-01T15:52:57.839Z,9.15
2022-12-01T15:55:47.087Z,9.40
2022-12-01T15:58:36.153Z,9.65
2022-12-01T16:01:06.512Z,10.10
2022-12-01T16:03:50.958Z,9.23
2022-12-01T16:06:17.891Z,9.43
2022-12-01T16:08:56.796Z,9.32
2022-12-01T16:11:23.652Z,9.32
2022-12-01T16:13:55.533Z,10.00
2022-12-01T16:16:35.918Z,10.02
2022-12-01T16:19:05.472Z,9.60
2022-12-01T16:21:41.924Z,9.32
2022-12-01T16:24:15.899Z,10.10
2022-12-01T16:26:56.853Z,10.02
2022-12-01T16:29:25.684Z,9.30
2022-12-01T16:32:18.898Z,9.52
2022-12-01T16:34:46.358Z,9.57
2022-12-01T16:37:24.035Z,9.90
2022-12-01T16:39:50.592Z,9.20
2022-12-01T16:42:20.370Z,10.85
2022-12-01T16:44:48.134Z,10.18
2022-12-01T16:47:19.325Z,10.70
2022-12-01T16:49:46.293Z,10.13
2022-12-01T16:52:42.950Z,10.38
2022-12-01T16:55:00.209Z,10.82
2022-12-01T16:57:26.517Z,12.80
2022-12-01T16:59:52.850Z,12.32
2022-12-01T17:02:19.265Z,11.10
2022-12-01T17:04:45.630Z,10.07
2022-12-01T17:07:12.009Z,11.25
2022-12-01T17:09:38.343Z,10.25
2022-12-01T17:12:05.027Z,10.68
2022-12-01T17:14:31.423Z,11.05
2022-12-01T17:17:00.857Z,9.60
2022-12-01T17:19:27.242Z,10.18
2022-12-01T17:21:55.294Z,11.27
2022-12-01T17:24:21.660Z,11.15
2022-12-01T17:26:48.010Z,10.68
2022-12-01T17:29:14.431Z,9.98
2022-12-01T17:31:40.802Z,9.77
2022-12-01T17:34:07.195Z,10.05
2022-12-01T17:36:33.535Z,10.15
2022-12-01T17:38:59.882Z,9.60
2022-12-01T17:41:32.097Z,10.23
2022-12-01T17:43:58.695Z,10.07
2022-12-01T17:46:25.576Z,12.27
2022-12-01T17:48:52.077Z,10.73
2022-12-01T17:51:18.420Z,10.88
2022-12-01T17:53:44.732Z,10.85
2022-12-01T17:56:13.681Z,10.82
2022-12-01T17:58:40.635Z,11.38
2022-12-01T18:01:14.597Z,11.02
2022-12-01T18:03:41.150Z,11.98
2022-12-01T18:06:07.887Z,12.15
2022-12-01T18:08:36.169Z,11.65
2022-12-01T18:11:07.673Z,10.60
2022-12-01T18:13:43.843Z,11.48
2022-12-01T18:16:17.275Z,10.95
2022-12-01T18:18:43.987Z,11.32
2022-12-01T18:21:13.002Z,12.00
2022-12-01T18:23:40.015Z,12.05
2022-12-01T18:26:15.144Z,11.32
2022-12-01T18:28:42.434Z,12.00
2022-12-01T18:31:15.029Z,10.98
2022-12-01T18:33:43.529Z,11.40
2022-12-01T18:36:13.402Z,11.85
2022-12-01T18:38:40.672Z,13.60
2022-12-01T18:41:07.553Z,11.98
2022-12-01T18:43:34.502Z,12.80
2022-12-01T18:46:03.172Z,13.70
2022-12-01T18:48:30.149Z,12.55
2022-12-01T18:50:59.391Z,12.05
2022-12-01T18:53:26.110Z,12.20
2022-12-01T18:55:52.458Z,12.00
2022-12-01T18:58:18.842Z,11.40
2022-12-01T19:00:45.687Z,13.80
2022-12-01T19:03:12.060Z,13.73
2022-12-01T19:05:39.516Z,12.65
2022-12-01T19:08:06.229Z,12.98
2022-12-01T19:10:33.229Z,12.38
2022-12-01T19:12:59.565Z,13.15
2022-12-01T19:15:25.893Z,11.43
2022-12-01T19:17:52.325Z,11.65
2022-12-01T19:20:18.630Z,11.23
2022-12-01T19:22:45.059Z,11.43
2022-12-01T19:25:12.374Z,12.20
2022-12-01T19:27:39.340Z,12.63
2022-12-01T19:30:06.897Z,11.75
2022-12-01T19:32:33.798Z,11.57
2022-12-01T19:35:00.189Z,12.27
2022-12-01T19:37:26.587Z,12.52
2022-12-01T19:39:53.139Z,12.43
2022-12-01T19:42:19.512Z,12.25
2022-12-01T19:44:45.921Z,13.23
2022-12-01T19:47:12.290Z,11.77
2022-12-01T19:49:38.638Z,12.55
2022-12-01T19:52:08.184Z,12.75
2022-12-01T19:54:35.311Z,12.55
2022-12-01T19:57:01.723Z,13.07
2022-12-01T19:59:28.043Z,13.40
2022-12-01T20:01:54.404Z,13.60
2022-12-01T20:04:20.840Z,13.23
2022-12-01T20:06:47.226Z,15.75
2022-12-01T20:09:13.585Z,13.80
2022-12-01T20:11:39.972Z,13.75
2022-12-01T20:14:09.914Z,12.23
2022-12-01T20:16:36.496Z,13.38
2022-12-01T20:19:04.503Z,13.95
2022-12-01T20:21:39.100Z,13.88
2022-12-01T20:24:07.385Z,13.30
2022-12-01T20:26:56.446Z,14.02
2022-12-01T20:29:28.307Z,12.85
2022-12-01T20:31:57.106Z,12.43
2022-12-01T20:34:31.304Z,13.75
2022-12-01T20:36:58.172Z,12.88
2022-12-01T20:39:24.883Z,13.13
2022-12-01T20:41:51.542Z,13.77
2022-12-01T20:44:18.231Z,13.98
2022-12-01T20:46:47.857Z,14.02
2022-12-01T20:49:15.891Z,14.73
2022-12-01T20:51:42.753Z,14.02
2022-12-01T20:54:29.745Z,14.23
2022-12-01T20:56:57.752Z,11.98
2022-12-01T20:59:24.697Z,13.90
2022-12-01T21:01:51.149Z,14.02
2022-12-01T21:04:17.770Z,13.15
2022-12-01T21:06:44.257Z,12.25
2022-12-01T21:09:12.460Z,12.02
2022-12-01T21:12:17.702Z,14.60
2022-12-01T21:14:48.923Z,13.68
2022-12-01T21:17:44.031Z,12.23
2022-12-01T21:20:25.034Z,12.40
2022-12-01T21:22:53.159Z,13.27
2022-12-01T21:25:22.681Z,12.35
2022-12-01T21:27:49.873Z,12.38
2022-12-01T21:30:21.854Z,13.43
2022-12-01T21:32:49.447Z,13.68
2022-12-01T21:35:19.790Z,14.10
2022-12-01T21:37:47.630Z,13.75
2022-12-01T21:40:22.270Z,12.73
2022-12-01T21:42:49.342Z,13.20
2022-12-01T21:45:31.945Z,13.75
2022-12-01T21:48:17.666Z,12.77
2022-12-01T21:50:48.124Z,12.63
2022-12-01T21:53:19.949Z,13.47
2022-12-01T21:55:47.505Z,13.35
2022-12-01T21:58:24.469Z,12.55
2022-12-01T22:00:53.639Z,12.63
2022-12-01T22:03:22.619Z,12.82
2022-12-01T22:06:13.551Z,12.80
2022-12-01T22:08:42.912Z,11.43
2022-12-01T22:11:18.592Z,13.75
2022-12-01T22:13:52.053Z,13.20
2022-12-01T22:16:22.382Z,15.32
2022-12-01T22:18:52.110Z,15.30
2022-12-01T22:21:21.422Z,12.55
2022-12-01T22:24:08.051Z,12.02
2022-12-01T22:26:37.360Z,14.38
2022-12-01T22:29:20.467Z,13.25
2022-12-01T22:31:47.919Z,12.30
2022-12-01T22:34:16.383Z,13.32
2022-12-01T22:36:42.848Z,13.50
2022-12-01T22:39:41.637Z,14.80
2022-12-01T22:42:13.340Z,14.10
2022-12-01T22:44:39.871Z,12.55
2022-12-01T22:47:09.445Z,12.90
2022-12-01T22:49:35.828Z,14.27
2022-12-01T22:52:14.011Z,12.13
2022-12-01T22:54:44.722Z,13.02
2022-12-01T22:57:16.196Z,12.75
2022-12-01T22:59:44.096Z,12.52
2022-12-01T23:02:21.122Z,13.38
2022-12-01T23:04:51.677Z,13.80
2022-12-01T23:07:33.223Z,14.40
2022-12-01T23:10:22.206Z,13.07
2022-12-01T23:12:51.312Z,13.07
2022-12-01T23:15:34.664Z,14.80
2022-12-01T23:18:16.251Z,14.05
2022-12-01T23:20:45.805Z,13.77
2022-12-01T23:23:17.535Z,13.73
2022-12-01T23:25:45.332Z,14.00
2022-12-01T23:28:12.619Z,13.88
2022-12-01T23:30:42.671Z,13.32
2022-12-01T23:33:08.945Z,12.85
2022-12-01T23:35:41.276Z,12.73
2022-12-01T23:38:15.808Z,14.85
2022-12-01T23:40:42.571Z,13.63
2022-12-01T23:43:15.777Z,13.13
2022-12-01T23:45:42.579Z,13.63
2022-12-01T23:48:21.722Z,13.80
2022-12-01T23:50:52.246Z,12.63
2022-12-01T23:53:30.935Z,13.27
2022-12-01T23:56:05.233Z,13.98
2022-12-01T23:58:31.583Z,14.75
